createdAt,value
2022-08-19T00:04:39.292Z,77
2022-08-19T00:09:40.818Z,78
2022-08-19T00:14:42.032Z,79
2022-08-19T00:19:43.492Z,80
2022-08-19T00:24:49.678Z,81
2022-08-19T00:29:52.156Z,79
2022-08-19T00:34:48.736Z,79
2022-08-19T00:39:50.613Z,79
2022-08-19T00:44:51.837Z,79
2022-08-19T00:49:53.284Z,79
2022-08-19T00:54:55.044Z,79
2022-08-19T01:00:02.098Z,79
2022-08-19T01:04:58.491Z,77
2022-08-19T01:09:59.888Z,77
2022-08-19T01:15:01.190Z,76
2022-08-19T01:20:02.999Z,76
2022-08-19T01:25:07.934Z,76
2022-08-19T01:30:07.235Z,76
2022-08-19T01:35:08.373Z,76
2022-08-19T01:40:10.050Z,75
2022-08-19T01:45:11.946Z,74
2022-08-19T01:50:13.542Z,75
2022-08-19T01:55:15.198Z,75
2022-08-19T02:00:16.933Z,75
2022-08-19T02:05:18.427Z,75
2022-08-19T02:10:20.438Z,75
2022-08-19T02:15:22.311Z,74
2022-08-19T02:20:23.604Z,74
2022-08-19T02:25:25.548Z,74
2022-08-19T02:30:27.693Z,74
2022-08-19T02:35:28.898Z,75
2022-08-19T02:40:30.126Z,77
2022-08-19T02:45:31.952Z,77
2022-08-19T02:50:34.014Z,76
2022-08-19T02:55:45.854Z,77
2022-08-19T03:00:37.701Z,76
2022-08-19T03:05:46.894Z,76
2022-08-19T03:10:40.863Z,76
2022-08-19T03:15:42.300Z,76
2022-08-19T03:20:44.032Z,76
2022-08-19T03:25:45.836Z,75
2022-08-19T03:30:48.011Z,75
2022-08-19T03:35:49.868Z,75
2022-08-19T03:40:52.019Z,76
2022-08-19T03:45:54.034Z,76
2022-08-19T03:50:55.485Z,77
2022-08-19T03:55:57.540Z,76
2022-08-19T04:00:59.386Z,75
2022-08-19T04:06:01.138Z,75
2022-08-19T04:11:02.851Z,75
2022-08-19T04:16:04.344Z,74
2022-08-19T04:21:05.824Z,74
2022-08-19T04:26:07.656Z,75
2022-08-19T04:31:09.790Z,74
2022-08-19T04:36:11.267Z,73
2022-08-19T04:41:13.089Z,73
2022-08-19T04:46:16.000Z,73
2022-08-19T04:51:16.435Z,73
2022-08-19T04:56:18.392Z,73
2022-08-19T05:01:20.269Z,73
2022-08-19T05:06:22.266Z,73
2022-08-19T05:11:26.522Z,72
2022-08-19T05:16:25.347Z,72
2022-08-19T05:21:26.802Z,72
2022-08-19T05:26:28.900Z,73
2022-08-19T05:31:30.494Z,73
2022-08-19T05:36:32.172Z,74
2022-08-19T05:41:33.568Z,74
2022-08-19T05:46:35.321Z,74
2022-08-19T05:51:37.039Z,73
2022-08-19T05:56:38.997Z,72
2022-08-19T06:01:40.763Z,72
2022-08-19T06:06:42.199Z,67
2022-08-19T06:11:43.991Z,70
2022-08-19T06:16:46.237Z,69
2022-08-19T06:21:48.235Z,69
2022-08-19T06:26:49.942Z,69
2022-08-19T06:31:51.537Z,68
2022-08-19T06:36:53.589Z,67
2022-08-19T06:41:56.875Z,66
2022-08-19T06:46:56.400Z,65
2022-08-19T06:51:57.789Z,65
2022-08-19T06:56:59.601Z,65
2022-08-19T07:02:01.664Z,65
2022-08-19T07:07:07.827Z,64
2022-08-19T07:12:06.928Z,67
2022-08-19T07:17:07.258Z,69
2022-08-19T07:22:08.638Z,67
2022-08-19T07:27:13.066Z,68
2022-08-19T07:32:11.538Z,68
2022-08-19T07:37:13.233Z,69
2022-08-19T07:42:15.208Z,69
2022-08-19T07:47:48.479Z,68
2022-08-19T07:52:18.613Z,69
2022-08-19T07:57:20.772Z,69
2022-08-19T08:02:22.597Z,70
2022-08-19T08:07:24.083Z,69
2022-08-19T08:12:33.979Z,69
2022-08-19T08:17:30.920Z,69
2022-08-19T08:22:29.124Z,69
2022-08-19T08:27:31.001Z,71
2022-08-19T08:32:32.549Z,71
2022-08-19T08:37:33.905Z,71
2022-08-19T08:42:35.559Z,70
2022-08-19T08:47:37.300Z,70
2022-08-19T08:52:39.420Z,69
2022-08-19T08:57:41.230Z,69
2022-08-19T09:02:43.504Z,68
2022-08-19T09:07:47.333Z,68
2022-08-19T09:12:46.536Z,69
2022-08-19T09:17:50.077Z,69
2022-08-19T09:22:50.703Z,68
2022-08-19T09:27:52.631Z,68
2022-08-19T09:32:54.558Z,68
2022-08-19T09:37:57.533Z,68
2022-08-19T09:42:57.743Z,68
2022-08-19T09:47:59.047Z,68
2022-08-19T09:53:00.832Z,68
2022-08-19T09:58:02.718Z,68
2022-08-19T10:03:04.692Z,68
2022-08-19T10:08:06.411Z,69
2022-08-19T10:13:08.105Z,69
2022-08-19T10:18:15.750Z,70
2022-08-19T10:23:17.220Z,68
2022-08-19T10:28:19.648Z,68
2022-08-19T10:33:38.282Z,67
2022-08-19T10:43:23.349Z,67
2022-08-19T10:48:25.033Z,68
2022-08-19T11:03:29.818Z,65
2022-08-19T11:18:35.271Z,62
2022-08-19T11:23:36.688Z,61
2022-08-19T11:33:39.338Z,59
2022-08-19T11:38:41.312Z,59
2022-08-19T12:03:48.753Z,58
2022-08-19T12:08:50.085Z,58
2022-08-19T12:13:51.429Z,58
2022-08-19T12:18:53.156Z,57
2022-08-19T12:23:55.887Z,58
2022-08-19T12:28:55.794Z,58
2022-08-19T12:33:57.893Z,58
2022-08-19T12:38:59.191Z,59
2022-08-19T12:44:00.383Z,58
2022-08-19T12:49:02.757Z,58
2022-08-19T12:54:04.447Z,58
2022-08-19T12:59:06.492Z,58
2022-08-19T13:04:08.197Z,58
2022-08-19T13:09:09.422Z,58
2022-08-19T13:14:10.824Z,59
2022-08-19T13:19:12.651Z,59
2022-08-19T13:24:14.238Z,59
2022-08-19T13:29:15.397Z,59
2022-08-19T13:34:16.745Z,60
2022-08-19T13:39:18.612Z,61
2022-08-19T13:44:20.387Z,62
2022-08-19T13:49:21.787Z,63
2022-08-19T13:54:23.579Z,61
2022-08-19T13:59:25.077Z,60
2022-08-19T14:04:27.027Z,61
2022-08-19T14:09:28.670Z,61
2022-08-19T14:14:30.100Z,62
2022-08-19T14:19:31.313Z,61
2022-08-19T14:24:33.102Z,61
2022-08-19T14:29:34.821Z,62
2022-08-19T14:34:36.337Z,62
2022-08-19T14:39:37.951Z,61
2022-08-19T14:44:39.233Z,61
2022-08-19T14:49:42.371Z,61
2022-08-19T14:54:42.835Z,60
2022-08-19T14:59:44.926Z,61
2022-08-19T15:04:47.053Z,61
2022-08-19T15:09:48.993Z,61
2022-08-19T15:14:50.438Z,61
2022-08-19T15:19:51.894Z,62
2022-08-19T15:24:53.840Z,62
2022-08-19T15:29:56.459Z,62
2022-08-19T15:34:56.893Z,63
2022-08-19T15:39:58.727Z,63
2022-08-19T15:45:00.257Z,64
2022-08-19T15:50:02.222Z,64
2022-08-19T15:55:04.239Z,64
2022-08-19T16:00:06.011Z,64
2022-08-19T16:05:07.667Z,63
2022-08-19T16:10:17.787Z,64
2022-08-19T16:15:11.429Z,65
2022-08-19T16:20:13.593Z,65
2022-08-19T16:25:14.812Z,64
2022-08-19T16:30:16.771Z,65
2022-08-19T16:35:17.954Z,64
2022-08-19T16:40:19.575Z,65
2022-08-19T16:45:21.473Z,68
2022-08-19T16:50:39.221Z,67
2022-08-19T16:55:25.437Z,67
2022-08-19T17:00:27.564Z,67
2022-08-19T17:05:29.083Z,67
2022-08-19T17:10:31.157Z,67
2022-08-19T17:15:33.109Z,68
2022-08-19T17:20:34.282Z,68
2022-08-19T17:25:36.031Z,67
2022-08-19T17:30:38.177Z,67
2022-08-19T17:35:39.561Z,68
2022-08-19T17:40:40.989Z,67
2022-08-19T17:45:42.716Z,67
2022-08-19T17:50:44.283Z,68
2022-08-19T17:55:48.003Z,68
2022-08-19T18:00:53.392Z,68
2022-08-19T18:05:49.022Z,69
2022-08-19T18:10:50.360Z,70
2022-08-19T18:15:52.182Z,70
2022-08-19T18:20:53.830Z,70
2022-08-19T18:25:55.473Z,70
2022-08-19T18:30:57.393Z,71
2022-08-19T18:35:58.614Z,71
2022-08-19T18:41:00.553Z,72
2022-08-19T18:46:01.786Z,74
2022-08-19T18:51:03.064Z,73
2022-08-19T18:56:05.132Z,72
2022-08-19T19:01:07.174Z,73
2022-08-19T19:06:09.227Z,73
2022-08-19T19:11:10.641Z,75
2022-08-19T19:16:11.958Z,75
2022-08-19T19:21:13.359Z,76
2022-08-19T19:26:14.884Z,76
2022-08-19T19:31:16.760Z,76
2022-08-19T19:36:18.260Z,76
2022-08-19T19:41:20.091Z,76
2022-08-19T19:46:21.572Z,77
2022-08-19T19:51:22.838Z,77
2022-08-19T19:56:24.920Z,78
2022-08-19T20:01:26.785Z,77
2022-08-19T20:06:28.218Z,77
2022-08-19T20:11:29.706Z,77
2022-08-19T20:16:31.091Z,77
2022-08-19T20:21:32.850Z,79
2022-08-19T20:26:34.734Z,79
2022-08-19T20:31:36.451Z,78
2022-08-19T20:36:38.026Z,79
2022-08-19T20:41:40.005Z,78
2022-08-19T20:46:41.083Z,77
2022-08-19T20:51:42.993Z,79
2022-08-19T20:56:44.416Z,79
2022-08-19T21:01:46.070Z,79
2022-08-19T21:06:47.491Z,79
2022-08-19T21:11:49.552Z,81
2022-08-19T21:16:51.453Z,79
2022-08-19T21:21:53.417Z,79
2022-08-19T21:26:55.482Z,79
2022-08-19T21:31:57.089Z,79
2022-08-19T21:36:58.499Z,80
2022-08-19T21:42:00.466Z,80
2022-08-19T21:47:02.187Z,81
2022-08-19T21:52:03.636Z,81
2022-08-19T21:57:05.227Z,82
2022-08-19T22:12:09.674Z,80
2022-08-19T22:17:11.349Z,81
2022-08-19T22:22:13.446Z,81
2022-08-19T22:27:15.578Z,82
2022-08-19T22:32:23.077Z,83
2022-08-19T22:37:19.031Z,82
2022-08-19T22:42:20.444Z,82
2022-08-19T22:47:22.395Z,82
2022-08-19T22:52:23.584Z,82
2022-08-19T22:57:24.825Z,82
2022-08-19T23:02:26.686Z,82
2022-08-19T23:07:28.610Z,84
2022-08-19T23:12:30.668Z,84
2022-08-19T23:17:32.151Z,82
2022-08-19T23:22:33.647Z,82
2022-08-19T23:27:35.743Z,83
2022-08-19T23:32:37.122Z,83
2022-08-19T23:37:38.412Z,84
2022-08-19T23:42:40.476Z,84
2022-08-19T23:47:42.088Z,85
2022-08-19T23:52:44.163Z,84
2022-08-19T23:57:45.719Z,84
